createdAt,value
2018-08-13T00:12:21.350Z,95292.16
2018-08-13T00:14:51.798Z,95289.81
2018-08-13T00:34:43.017Z,95302.94
2018-08-13T00:37:13.058Z,95299.49
2018-08-13T00:39:42.686Z,95297.77
2018-08-13T00:42:12.548Z,95298.84
2018-08-13T00:44:42.388Z,95308.05
2018-08-13T00:47:11.991Z,95297.16
2018-08-13T00:49:41.426Z,95301.75
2018-08-13T00:52:11.395Z,95305.05
2018-08-13T00:54:41.137Z,95300.93
2018-08-13T00:57:11.278Z,95308.30
2018-08-13T00:59:41.569Z,95303.63
2018-08-13T01:02:11.379Z,95298.60
2018-08-13T01:04:41.074Z,95307.05
2018-08-13T01:07:10.920Z,95299.72
2018-08-13T01:09:40.403Z,95300.80
2018-08-13T01:12:10.040Z,95298.09
2018-08-13T01:14:40.086Z,95294.89
2018-08-13T01:17:09.466Z,95291.98
2018-08-13T01:19:39.045Z,95286.27
2018-08-13T01:22:08.973Z,95296.66
2018-08-13T01:42:01.258Z,95293.47
2018-08-13T02:01:52.031Z,95282.86
2018-08-13T02:04:21.710Z,95280.74
2018-08-13T02:06:51.077Z,95279.80
2018-08-13T02:09:20.877Z,95279.61
2018-08-13T02:11:50.458Z,95280.61
2018-08-13T02:14:20.173Z,95276.15
2018-08-13T02:16:50.020Z,95277.77
2018-08-13T02:19:19.696Z,95282.22
2018-08-13T02:47:51.755Z,95288.31
2018-08-13T02:50:21.612Z,95286.53
2018-08-13T02:52:51.394Z,95293.38
2018-08-13T02:55:21.005Z,95298.74
2018-08-13T02:57:51.234Z,95295.44
2018-08-13T03:00:20.938Z,95297.19
2018-08-13T03:02:50.308Z,95293.47
2018-08-13T03:05:20.295Z,95298.14
2018-08-13T03:07:50.122Z,95289.67
2018-08-13T03:27:41.401Z,95303.06
2018-08-13T03:30:12.469Z,95302.31
2018-08-13T03:50:04.176Z,95312.15
2018-08-13T03:52:33.523Z,95319.56
2018-08-13T03:55:03.098Z,95315.69
2018-08-13T03:57:32.416Z,95311.67
2018-08-13T04:00:02.299Z,95305.57
2018-08-13T04:02:31.836Z,95302.70
2018-08-13T04:22:24.317Z,95302.20
2018-08-13T04:24:53.837Z,95303.22
2018-08-13T04:44:45.599Z,95304.08
2018-08-13T04:47:15.422Z,95295.42
2018-08-13T04:49:44.718Z,95301.98
2018-08-13T04:52:14.720Z,95301.08
2018-08-13T04:54:44.384Z,95308.69
2018-08-13T04:57:14.197Z,95310.75
2018-08-13T04:59:43.637Z,95317.61
2018-08-13T05:02:13.130Z,95306.91
2018-08-13T05:04:42.454Z,95302.33
2018-08-13T05:07:12.461Z,95304.69
2018-08-13T05:09:42.114Z,95305.93
2018-08-13T05:12:11.900Z,95311.42
2018-08-13T05:14:41.916Z,95307.34
2018-08-13T05:17:12.121Z,95304.22
2018-08-13T05:19:41.884Z,95306.97
2018-08-13T05:22:11.475Z,95304.55
2018-08-13T05:24:41.228Z,95300.53
2018-08-13T05:27:10.791Z,95308.69
2018-08-13T05:29:40.762Z,95308.13
2018-08-13T05:32:10.278Z,95315.73
2018-08-13T05:34:40.024Z,95312.95
2018-08-13T05:37:09.701Z,95314.65
2018-08-13T05:39:39.286Z,95312.31
2018-08-13T05:42:08.837Z,95309.53
2018-08-13T05:44:39.030Z,95308.91
2018-08-13T05:47:08.546Z,95306.77
2018-08-13T05:49:38.246Z,95311.68
2018-08-13T05:52:08.493Z,95299.20
2018-08-13T05:54:37.953Z,95307.00
2018-08-13T05:57:07.667Z,95300.24
2018-08-13T05:59:37.802Z,95296.45
2018-08-13T06:19:29.799Z,95290.63
2018-08-13T06:21:59.835Z,95273.14
2018-08-13T06:24:29.330Z,95278.31
2018-08-13T06:26:59.116Z,95276.38
2018-08-13T06:29:29.003Z,95286.83
2018-08-13T06:31:58.812Z,95275.09
2018-08-13T06:34:28.310Z,95274.41
2018-08-13T06:36:58.262Z,95279.64
2018-08-13T06:39:27.746Z,95285.78
2018-08-13T06:41:57.236Z,95277.45
2018-08-13T06:44:26.788Z,95277.16
2018-08-13T06:46:56.376Z,95274.54
2018-08-13T07:06:48.601Z,95272.89
2018-08-13T07:09:18.525Z,95272.55
2018-08-13T07:29:10.809Z,95256.11
2018-08-13T07:49:02.456Z,95244.70
2018-08-13T07:51:32.656Z,95245.25
2018-08-13T07:54:02.365Z,95245.40
2018-08-13T07:56:31.952Z,95245.27
2018-08-13T07:59:02.357Z,95248.33
2018-08-13T08:18:54.401Z,95247.41
2018-08-13T08:21:24.669Z,95242.02
2018-08-13T08:23:54.538Z,95234.11
2018-08-13T08:26:24.322Z,95223.91
2018-08-13T08:28:54.401Z,95226.28
2018-08-13T08:31:23.807Z,95230.21
2018-08-13T08:33:54.193Z,95219.28
2018-08-13T08:53:46.845Z,95199.70
2018-08-13T08:56:16.588Z,95197.20
2018-08-13T08:58:46.516Z,95192.08
2018-08-13T09:01:16.361Z,95193.66
2018-08-13T09:03:46.139Z,95190.29
2018-08-13T09:23:49.704Z,95182.38
2018-08-13T09:26:30.224Z,95180.06
2018-08-13T09:46:22.014Z,95167.25
2018-08-13T09:48:51.561Z,95165.50
2018-08-13T09:51:21.292Z,95161.91
2018-08-13T09:53:51.089Z,95163.89
2018-08-13T09:56:20.916Z,95155.40
2018-08-13T10:16:12.867Z,95128.98
2018-08-13T10:18:42.390Z,95130.37
2018-08-13T10:21:12.175Z,95129.06
2018-08-13T10:23:42.200Z,95131.85
2018-08-13T10:26:11.712Z,95129.66
2018-08-13T10:28:40.998Z,95126.35
2018-08-13T10:31:10.935Z,95125.93
2018-08-13T10:33:40.405Z,95131.52
2018-08-13T10:36:09.997Z,95126.43
2018-08-13T10:38:39.756Z,95130.66
2018-08-13T10:41:09.432Z,95127.90
2018-08-13T10:43:39.190Z,95125.53
2018-08-13T10:46:09.366Z,95130.58
2018-08-13T10:48:38.882Z,95119.72
2018-08-13T10:51:08.639Z,95116.74
2018-08-13T10:53:38.462Z,95121.68
2018-08-13T10:56:08.338Z,95113.43
2018-08-13T10:58:37.931Z,95107.87
2018-08-13T11:01:08.159Z,95105.37
2018-08-13T11:03:37.763Z,95104.29
2018-08-13T11:06:07.459Z,95100.73
2018-08-13T11:08:37.082Z,95094.18
2018-08-13T11:28:28.404Z,95078.84
2018-08-13T11:30:58.126Z,95077.68
2018-08-13T11:33:27.830Z,95074.59
2018-08-13T11:35:57.476Z,95070.56
2018-08-13T11:38:26.821Z,95079.69
2018-08-13T11:40:56.352Z,95073.67
2018-08-13T12:00:48.024Z,95052.34
2018-08-13T12:03:17.737Z,95053.11
2018-08-13T12:05:47.603Z,95046.58
2018-08-13T12:08:17.427Z,95047.19
2018-08-13T12:10:46.918Z,95049.73
2018-08-13T12:13:16.468Z,95044.88
2018-08-13T12:15:46.469Z,95046.80
2018-08-13T12:18:16.539Z,95047.22
2018-08-13T12:20:47.568Z,95043.45
2018-08-13T12:40:38.737Z,95033.81
2018-08-13T12:43:09.161Z,95027.83
2018-08-13T13:03:00.442Z,95007.51
2018-08-13T13:05:29.930Z,95006.50
2018-08-13T13:07:59.671Z,95005.78
2018-08-13T13:10:29.216Z,94999.77
2018-08-13T13:12:59.291Z,94993.59
2018-08-13T13:32:51.301Z,94993.69
2018-08-13T13:35:21.606Z,94984.98
2018-08-13T13:37:51.117Z,94986.30
2018-08-13T13:40:20.901Z,94991.99
2018-08-13T13:42:51.067Z,94984.41
2018-08-13T13:45:20.694Z,94980.75
2018-08-13T13:47:50.418Z,94981.41
2018-08-13T13:50:20.722Z,94978.42
2018-08-13T14:10:14.511Z,94961.14
2018-08-13T14:12:45.063Z,94952.53
2018-08-13T14:15:16.097Z,94955.59
2018-08-13T14:17:46.289Z,94955.54
2018-08-13T14:20:16.104Z,94943.03
2018-08-13T14:51:43.193Z,94931.11
2018-08-13T14:54:12.706Z,94926.81
2018-08-13T14:56:42.354Z,94931.55
2018-08-13T14:59:12.508Z,94928.92
2018-08-13T15:01:42.070Z,94918.34
2018-08-13T15:04:11.624Z,94925.58
2018-08-13T15:06:41.579Z,94924.64
2018-08-13T15:09:11.927Z,94921.27
2018-08-13T15:11:42.807Z,94916.55
2018-08-13T15:14:14.201Z,94917.51
2018-08-13T15:16:44.527Z,94921.65
2018-08-13T15:19:14.146Z,94916.40
2018-08-13T15:39:09.293Z,94911.18
2018-08-13T15:41:38.982Z,94909.65
2018-08-13T15:44:10.175Z,94902.11
2018-08-13T15:46:40.016Z,94900.70
2018-08-13T15:49:11.265Z,94899.22
2018-08-13T15:51:41.075Z,94897.64
2018-08-13T15:54:10.971Z,94894.11
2018-08-13T15:56:40.901Z,94887.19
2018-08-13T15:59:11.371Z,94882.98
2018-08-13T16:01:41.046Z,94891.20
2018-08-13T16:04:11.218Z,94893.89
2018-08-13T16:06:40.842Z,94884.95
2018-08-13T16:09:10.456Z,94892.69
2018-08-13T16:29:02.045Z,94886.00
2018-08-13T16:31:31.703Z,94884.41
2018-08-13T16:34:01.452Z,94888.10
2018-08-13T16:36:31.383Z,94886.39
2018-08-13T16:39:00.982Z,94886.78
2018-08-13T16:41:30.534Z,94884.31
2018-08-13T17:01:22.207Z,94882.67
2018-08-13T17:03:51.787Z,94883.84
2018-08-13T17:06:21.302Z,94884.19
2018-08-13T17:26:14.067Z,94903.14
2018-08-13T17:28:43.759Z,94904.16
2018-08-13T17:31:13.763Z,94904.84
2018-08-13T17:33:43.947Z,94906.47
2018-08-13T17:36:13.776Z,94906.25
2018-08-13T17:56:05.706Z,94929.12
2018-08-13T17:58:35.343Z,94931.26
2018-08-13T18:01:05.242Z,94927.85
2018-08-13T18:03:35.419Z,94930.20
2018-08-13T18:06:05.248Z,94934.65
2018-08-13T18:08:35.045Z,94933.50
2018-08-13T18:11:05.161Z,94938.88
2018-08-13T18:13:35.476Z,94948.41
2018-08-13T18:16:05.345Z,94946.51
2018-08-13T18:18:35.538Z,94944.53
2018-08-13T18:21:05.676Z,94947.09
2018-08-13T18:23:35.206Z,94950.77
2018-08-13T18:26:05.353Z,94951.77
2018-08-13T18:28:35.524Z,94953.17
2018-08-13T18:31:05.077Z,94952.34
2018-08-13T18:33:35.634Z,94956.25
2018-08-13T18:36:05.555Z,94953.17
2018-08-13T18:38:35.366Z,94954.86
2018-08-13T18:41:04.875Z,94955.36
2018-08-13T18:43:34.553Z,94960.17
2018-08-13T18:46:04.355Z,94963.11
2018-08-13T18:48:34.606Z,94962.89
2018-08-13T18:51:05.217Z,94959.73
2018-08-13T18:53:35.531Z,94963.35
2018-08-13T18:56:05.261Z,94959.55
2018-08-13T18:58:35.052Z,94961.41
2018-08-13T19:01:04.719Z,94967.44
2018-08-13T19:03:34.380Z,94959.77
2018-08-13T19:06:05.085Z,94961.64
2018-08-13T19:08:34.548Z,94956.98
2018-08-13T19:11:04.411Z,94961.66
2018-08-13T19:13:34.370Z,94954.08
2018-08-13T19:16:03.834Z,94955.65
2018-08-13T19:35:55.922Z,94963.20
2018-08-13T19:38:25.871Z,94962.20
2018-08-13T19:40:55.525Z,94966.66
2018-08-13T19:43:25.974Z,94961.53
2018-08-13T19:45:55.737Z,94965.34
2018-08-13T19:48:25.801Z,94975.25
2018-08-13T19:50:55.181Z,94972.91
2018-08-13T19:53:25.122Z,94972.00
2018-08-13T19:55:54.958Z,94975.15
2018-08-13T19:58:24.764Z,94977.81
2018-08-13T20:00:54.540Z,94982.94
2018-08-13T20:03:24.459Z,94983.13
2018-08-13T20:05:54.566Z,94985.34
2018-08-13T20:25:46.340Z,94996.56
2018-08-13T20:28:16.486Z,94990.67
2018-08-13T20:30:46.940Z,94999.36
2018-08-13T20:33:16.633Z,94995.11
2018-08-13T20:35:46.934Z,94998.95
2018-08-13T20:38:16.424Z,94996.11
2018-08-13T20:40:46.292Z,95001.02
2018-08-13T20:43:16.073Z,95006.78
2018-08-13T20:45:45.677Z,95000.94
2018-08-13T20:48:15.278Z,95005.29
2018-08-13T20:50:45.520Z,95008.78
2018-08-13T20:53:15.082Z,95006.66
2018-08-13T20:55:44.871Z,95008.89
2018-08-13T20:58:14.982Z,95005.38
2018-08-13T21:00:44.469Z,95009.02
2018-08-13T21:03:14.148Z,95001.68
2018-08-13T21:05:44.366Z,95000.59
2018-08-13T21:08:13.895Z,95002.33
2018-08-13T21:10:43.448Z,95002.81
2018-08-13T21:13:13.640Z,95007.55
2018-08-13T21:15:43.000Z,95008.38
2018-08-13T21:18:13.556Z,95016.72
2018-08-13T21:20:43.815Z,95012.03
2018-08-13T21:23:13.412Z,95017.30
2018-08-13T21:25:43.171Z,95023.49
2018-08-13T21:28:13.419Z,95024.57
2018-08-13T21:30:42.975Z,95022.02
2018-08-13T21:33:12.901Z,95020.61
2018-08-13T21:35:42.374Z,95026.34
2018-08-13T21:38:12.149Z,95024.65
2018-08-13T21:40:41.957Z,95029.50
2018-08-13T21:43:11.916Z,95024.10
2018-08-13T21:45:42.638Z,95020.33
2018-08-13T21:48:12.285Z,95021.58
2018-08-13T21:50:42.254Z,95022.01
2018-08-13T21:53:11.971Z,95021.19
2018-08-13T21:55:41.757Z,95021.83
2018-08-13T21:58:12.125Z,95027.73
2018-08-13T22:00:47.806Z,95027.73
2018-08-13T22:03:18.037Z,95031.17
2018-08-13T22:05:47.587Z,95028.12
2018-08-13T22:08:17.088Z,95031.48
2018-08-13T22:10:47.159Z,95029.31
2018-08-13T22:13:16.957Z,95025.94
2018-08-13T22:15:46.527Z,95034.86
2018-08-13T22:18:16.560Z,95030.18
2018-08-13T22:20:46.068Z,95025.33
2018-08-13T22:23:15.858Z,95033.31
2018-08-13T22:25:47.121Z,95037.70
2018-08-13T22:28:18.158Z,95039.57
2018-08-13T22:30:49.235Z,95037.45
2018-08-13T22:33:19.128Z,95034.73
2018-08-13T22:35:48.728Z,95040.77
2018-08-13T22:38:19.248Z,95046.28
2018-08-13T22:40:49.225Z,95035.80
2018-08-13T22:43:18.790Z,95033.27
2018-08-13T22:45:49.126Z,95039.66
2018-08-13T22:48:18.576Z,95041.73
2018-08-13T22:50:49.131Z,95034.98
2018-08-13T22:53:18.965Z,95030.83
2018-08-13T22:55:48.641Z,95029.61
2018-08-13T22:58:18.463Z,95034.39
2018-08-13T23:00:48.271Z,95028.92
2018-08-13T23:03:18.007Z,95033.13
2018-08-13T23:05:47.888Z,95024.45
2018-08-13T23:08:17.707Z,95034.98
2018-08-13T23:10:47.633Z,95033.70
2018-08-13T23:13:19.457Z,95034.92
2018-08-13T23:15:49.221Z,95041.46
2018-08-13T23:18:19.006Z,95038.62
2018-08-13T23:20:48.775Z,95027.53
2018-08-13T23:23:19.386Z,95030.34
2018-08-13T23:25:48.756Z,95029.65
2018-08-13T23:28:18.897Z,95042.35
2018-08-13T23:30:48.419Z,95036.08
2018-08-13T23:33:17.918Z,95041.79
2018-08-13T23:35:48.962Z,95033.94
2018-08-13T23:38:18.700Z,95036.22
2018-08-13T23:40:48.509Z,95040.41
2018-08-13T23:43:18.361Z,95035.09
2018-08-13T23:45:48.282Z,95018.92
2018-08-13T23:48:17.910Z,95026.81
2018-08-13T23:50:47.921Z,95033.84
2018-08-13T23:53:17.694Z,95040.86
2018-08-13T23:55:47.265Z,95032.09
2018-08-13T23:58:17.164Z,95029.86
